Solicitamos su permiso para obtener datos estadísticos de su navegación en esta web, en cumplimiento del Real Decreto-ley 13/2012. Si continúa navegando consideramos que acepta el uso de cookies. OK | Más información

MAPA DE AEROPUERTO

INFORMACIÓN METAR y TAF

METAR FOR LEBL
ADDS - METARS form results

(2137 UTC 24 February 2018)
Data provider http://aviationweather.gov/adds/metars/
 
METAR text: LEBL 242130Z 33003KT 290V350 9999 FEW025 07/03 Q1010 NOSIG
Conditions at: LEBL (BARCELONA AIRPOR, ES) observed 2130 UTC 24 February 2018
Temperature: 7.0°C (45°F)
Dewpoint: 3.0°C (37°F) [RH = 76%]
Pressure (altimeter): 29.82 inches Hg (1010.0 mb)
Winds: from the NNW (330 degrees) at 3 MPH (3 knots; 1.6 m/s)
Visibility: 6 or more miles (10+ km)
Ceiling: at least 12,000 feet AGL
Clouds: few clouds at 2500 feet AGL
Weather: no significant weather observed at this time

METAR text: LEBL 242100Z 32004KT 9999 FEW025 07/03 Q1009 NOSIG
Conditions at: LEBL (BARCELONA AIRPOR, ES) observed 2100 UTC 24 February 2018
Temperature: 7.0°C (45°F)
Dewpoint: 3.0°C (37°F) [RH = 76%]
Pressure (altimeter): 29.79 inches Hg (1009.0 mb)
Winds: from the NW (320 degrees) at 5 MPH (4 knots; 2.1 m/s)
Visibility: 6 or more miles (10+ km)
Ceiling: at least 12,000 feet AGL
Clouds: few clouds at 2500 feet AGL
Weather: no significant weather observed at this time

Forecast for: LEBL (BARCELONA AIRPOR, ES)
Text: TAF LEBL 241700Z 2418/2518 21010KT 9999 FEW025 TX15/2512Z TN05/2506Z
Forecast period: 1800 UTC 24 February 2018 to 1800 UTC 25 February 2018
Forecast type: FROM: standard forecast or significant change
Winds: from the SSW (210 degrees) at 12 MPH (10 knots; 5.2 m/s)
Visibility: 6 or more miles (10+ km)
Clouds: few clouds at 2500 feet AGL
Weather: no significant weather forecast for this period
Text: BECMG 2418/2420 33008KT
Forecast period: 1800 UTC 24 February 2018 to 1000 UTC 25 February 2018
Forecast type: BECOMING: Conditions expected to become as follows by 2000 UTC 24 February 2018
Winds: from the NNW (330 degrees) at 9 MPH (8 knots; 4.2 m/s)
Visibility: 6 or more miles (10+ km)
Clouds: few clouds at 2500 feet AGL
Weather: no significant weather forecast for this period
Text: BECMG 2510/2512 22008KT
Forecast period: 1000 to 1800 UTC 25 February 2018
Forecast type: BECOMING: Conditions expected to become as follows by 1200 UTC 25 February 2018
Winds: from the SW (220 degrees) at 9 MPH (8 knots; 4.2 m/s)
Visibility: 6 or more miles (10+ km)
Clouds: few clouds at 2500 feet AGL
Weather: no significant weather forecast for this period